Terminal Aerodrome Forecast
Issued by NWS

Home | Current Version | Previous Version | Text Only | Print | Product List | Glossary On
Versions: 1 2 3 4 5 6 7 8 9 10 11 12
000
FTUS45 KPSR 042320
TAFBLH
TAF
KBLH 042320Z 0500/0524 18013G20KT P6SM FEW120
     FM050300 19010KT P6SM SKC
     FM051900 18013G20KT P6SM FEW120=

USA.gov is the U.S. government's official web portal to all federal, state and local government web resources and services.